sensor_id;sensor_type;location;lat;lon;timestamp;temperature;humidity
43842;DHT22;29495;49.970;20.842;2024-03-23T01:45:12;11.00;99.90
43842;DHT22;29495;49.970;20.842;2024-03-23T01:48:07;11.00;99.90
43842;DHT22;29495;49.970;20.842;2024-03-23T02:15:57;11.00;99.90
43842;DHT22;29495;49.970;20.842;2024-03-23T02:18:23;11.00;99.90
43842;DHT22;29495;49.970;20.842;2024-03-23T02:20:49;10.90;99.90
43842;DHT22;29495;49.970;20.842;2024-03-23T02:23:16;11.00;99.90
43842;DHT22;29495;49.970;20.842;2024-03-23T02:25:42;11.00;99.90
43842;DHT22;29495;49.970;20.842;2024-03-23T02:28:08;11.00;99.90
43842;DHT22;29495;49.970;20.842;2024-03-23T04:15:49;10.80;99.90
43842;DHT22;29495;49.970;20.842;2024-03-23T04:18:40;10.70;99.90
43842;DHT22;29495;49.970;20.842;2024-03-23T04:21:34;10.80;99.90
43842;DHT22;29495;49.970;20.842;2024-03-23T04:24:25;10.80;99.90
43842;DHT22;29495;49.970;20.842;2024-03-23T04:27:04;10.80;99.90
43842;DHT22;29495;49.970;20.842;2024-03-23T04:29:33;10.80;99.90
43842;DHT22;29495;49.970;20.842;2024-03-23T04:32:15;10.80;99.90
43842;DHT22;29495;49.970;20.842;2024-03-23T04:35:16;10.80;99.90
43842;DHT22;29495;49.970;20.842;2024-03-23T04:37:55;10.80;99.90
43842;DHT22;29495;49.970;20.842;2024-03-23T04:40:53;10.70;99.90
43842;DHT22;29495;49.970;20.842;2024-03-23T04:43:45;10.70;99.90
43842;DHT22;29495;49.970;20.842;2024-03-23T04:46:36;10.70;99.90
43842;DHT22;29495;49.970;20.842;2024-03-23T05:35:19;10.80;99.90
43842;DHT22;29495;49.970;20.842;2024-03-23T05:37:50;10.90;99.90
43842;DHT22;29495;49.970;20.842;2024-03-23T05:40:29;10.90;99.90
43842;DHT22;29495;49.970;20.842;2024-03-23T06:18:43;11.20;99.90
43842;DHT22;29495;49.970;20.842;2024-03-23T06:21:49;11.30;99.90
43842;DHT22;29495;49.970;20.842;2024-03-23T06:24:23;11.30;99.90
43842;DHT22;29495;49.970;20.842;2024-03-23T06:26:54;11.30;99.90
43842;DHT22;29495;49.970;20.842;2024-03-23T06:29:26;11.20;99.90
43842;DHT22;29495;49.970;20.842;2024-03-23T06:32:02;11.20;99.90
43842;DHT22;29495;49.970;20.842;2024-03-23T06:34:34;11.20;99.90
43842;DHT22;29495;49.970;20.842;2024-03-23T06:37:06;11.30;99.90
43842;DHT22;29495;49.970;20.842;2024-03-23T06:39:37;11.30;99.90
43842;DHT22;29495;49.970;20.842;2024-03-23T06:42:20;11.40;99.90
43842;DHT22;29495;49.970;20.842;2024-03-23T06:44:52;11.30;99.90
43842;DHT22;29495;49.970;20.842;2024-03-23T06:47:32;11.20;99.90
43842;DHT22;29495;49.970;20.842;2024-03-23T06:54:00;11.40;99.90
43842;DHT22;29495;49.970;20.842;2024-03-23T06:56:55;11.50;99.90
43842;DHT22;29495;49.970;20.842;2024-03-23T06:59:35;11.60;99.90
43842;DHT22;29495;49.970;20.842;2024-03-23T07:02:52;11.70;99.90
43842;DHT22;29495;49.970;20.842;2024-03-23T07:18:20;11.90;99.90
43842;DHT22;29495;49.970;20.842;2024-03-23T07:51:08;13.00;99.90
43842;DHT22;29495;49.970;20.842;2024-03-23T08:26:06;13.80;99.90
43842;DHT22;29495;49.970;20.842;2024-03-23T08:29:01;13.90;99.90
43842;DHT22;29495;49.970;20.842;2024-03-23T10:05:41;15.50;97.20
43842;DHT22;29495;49.970;20.842;2024-03-23T10:09:16;15.40;97.10
43842;DHT22;29495;49.970;20.842;2024-03-23T10:54:25;16.00;94.30
43842;DHT22;29495;49.970;20.842;2024-03-23T10:57:03;16.10;94.60
43842;DHT22;29495;49.970;20.842;2024-03-23T10:59:31;16.20;94.60
43842;DHT22;29495;49.970;20.842;2024-03-23T11:01:58;16.30;94.60
43842;DHT22;29495;49.970;20.842;2024-03-23T11:04:35;16.30;93.10
43842;DHT22;29495;49.970;20.842;2024-03-23T11:07:01;16.10;93.80
43842;DHT22;29495;49.970;20.842;2024-03-23T11:14:53;16.00;93.90
43842;DHT22;29495;49.970;20.842;2024-03-23T11:17:32;16.10;93.70
43842;DHT22;29495;49.970;20.842;2024-03-23T11:24:13;16.20;93.70
43842;DHT22;29495;49.970;20.842;2024-03-23T11:27:40;16.40;94.40
43842;DHT22;29495;49.970;20.842;2024-03-23T11:30:42;16.60;95.60
43842;DHT22;29495;49.970;20.842;2024-03-23T11:33:16;17.00;94.50
43842;DHT22;29495;49.970;20.842;2024-03-23T11:35:55;17.10;93.10
43842;DHT22;29495;49.970;20.842;2024-03-23T11:38:23;17.20;91.00
43842;DHT22;29495;49.970;20.842;2024-03-23T11:40:49;17.20;90.20
43842;DHT22;29495;49.970;20.842;2024-03-23T11:43:18;17.20;90.60
43842;DHT22;29495;49.970;20.842;2024-03-23T11:45:47;17.40;91.00
43842;DHT22;29495;49.970;20.842;2024-03-23T11:48:49;17.40;89.00
43842;DHT22;29495;49.970;20.842;2024-03-23T11:51:18;17.50;87.00
43842;DHT22;29495;49.970;20.842;2024-03-23T12:17:07;17.40;85.40
43842;DHT22;29495;49.970;20.842;2024-03-23T12:19:33;17.40;86.00
43842;DHT22;29495;49.970;20.842;2024-03-23T12:21:59;17.50;89.30
43842;DHT22;29495;49.970;20.842;2024-03-23T12:24:26;17.50;86.60
43842;DHT22;29495;49.970;20.842;2024-03-23T12:26:52;17.60;84.30
43842;DHT22;29495;49.970;20.842;2024-03-23T12:29:18;17.70;86.30
43842;DHT22;29495;49.970;20.842;2024-03-23T12:31:45;17.90;89.50
43842;DHT22;29495;49.970;20.842;2024-03-23T12:34:11;17.90;85.00
43842;DHT22;29495;49.970;20.842;2024-03-23T12:36:37;17.90;85.40
43842;DHT22;29495;49.970;20.842;2024-03-23T12:39:03;18.00;84.30
43842;DHT22;29495;49.970;20.842;2024-03-23T12:41:29;17.80;83.90
43842;DHT22;29495;49.970;20.842;2024-03-23T12:43:55;17.90;84.50
43842;DHT22;29495;49.970;20.842;2024-03-23T12:46:21;17.90;84.70
43842;DHT22;29495;49.970;20.842;2024-03-23T12:48:48;17.80;83.70
43842;DHT22;29495;49.970;20.842;2024-03-23T12:51:15;17.90;86.30
43842;DHT22;29495;49.970;20.842;2024-03-23T13:33:36;17.10;83.20
43842;DHT22;29495;49.970;20.842;2024-03-23T13:44:05;17.20;87.30
43842;DHT22;29495;49.970;20.842;2024-03-23T13:46:32;17.10;84.40
43842;DHT22;29495;49.970;20.842;2024-03-23T13:48:58;17.00;84.50
43842;DHT22;29495;49.970;20.842;2024-03-23T13:51:24;17.10;84.70
43842;DHT22;29495;49.970;20.842;2024-03-23T13:53:55;17.20;87.60
43842;DHT22;29495;49.970;20.842;2024-03-23T13:56:24;17.10;87.40
43842;DHT22;29495;49.970;20.842;2024-03-23T13:58:50;17.00;83.00
43842;DHT22;29495;49.970;20.842;2024-03-23T14:01:16;17.00;86.10
43842;DHT22;29495;49.970;20.842;2024-03-23T14:03:42;17.00;84.60
43842;DHT22;29495;49.970;20.842;2024-03-23T14:06:10;17.00;84.20
43842;DHT22;29495;49.970;20.842;2024-03-23T14:08:37;16.90;84.20
43842;DHT22;29495;49.970;20.842;2024-03-23T14:11:08;16.70;85.40
43842;DHT22;29495;49.970;20.842;2024-03-23T14:13:35;16.70;84.70
43842;DHT22;29495;49.970;20.842;2024-03-23T14:16:01;16.70;85.80
43842;DHT22;29495;49.970;20.842;2024-03-23T14:18:28;16.50;86.40
43842;DHT22;29495;49.970;20.842;2024-03-23T14:20:58;16.50;87.50
43842;DHT22;29495;49.970;20.842;2024-03-23T14:23:25;16.30;86.70
43842;DHT22;29495;49.970;20.842;2024-03-23T14:25:53;16.30;89.20
43842;DHT22;29495;49.970;20.842;2024-03-23T14:28:20;16.30;90.50
43842;DHT22;29495;49.970;20.842;2024-03-23T14:30:48;16.30;87.70
43842;DHT22;29495;49.970;20.842;2024-03-23T14:33:15;16.40;90.10
43842;DHT22;29495;49.970;20.842;2024-03-23T14:35:41;16.40;89.90
43842;DHT22;29495;49.970;20.842;2024-03-23T14:38:07;16.40;91.30
43842;DHT22;29495;49.970;20.842;2024-03-23T14:40:33;16.50;90.90
43842;DHT22;29495;49.970;20.842;2024-03-23T14:42:59;16.60;90.60
43842;DHT22;29495;49.970;20.842;2024-03-23T14:45:25;16.70;91.40
43842;DHT22;29495;49.970;20.842;2024-03-23T14:47:52;16.70;91.20
43842;DHT22;29495;49.970;20.842;2024-03-23T14:50:19;16.70;89.70
43842;DHT22;29495;49.970;20.842;2024-03-23T14:52:47;16.50;88.70
43842;DHT22;29495;49.970;20.842;2024-03-23T14:55:13;16.60;90.70
43842;DHT22;29495;49.970;20.842;2024-03-23T14:57:39;16.50;87.80
43842;DHT22;29495;49.970;20.842;2024-03-23T15:00:09;16.50;88.80
43842;DHT22;29495;49.970;20.842;2024-03-23T15:02:39;16.50;90.00
43842;DHT22;29495;49.970;20.842;2024-03-23T15:05:05;16.40;89.70
43842;DHT22;29495;49.970;20.842;2024-03-23T15:07:36;16.20;89.50
43842;DHT22;29495;49.970;20.842;2024-03-23T15:10:04;16.20;89.70
43842;DHT22;29495;49.970;20.842;2024-03-23T15:12:31;16.10;90.70
43842;DHT22;29495;49.970;20.842;2024-03-23T15:14:59;16.10;91.20
43842;DHT22;29495;49.970;20.842;2024-03-23T15:17:26;16.00;90.50
43842;DHT22;29495;49.970;20.842;2024-03-23T15:19:53;16.00;91.00
43842;DHT22;29495;49.970;20.842;2024-03-23T15:22:19;15.90;91.10
43842;DHT22;29495;49.970;20.842;2024-03-23T15:24:47;15.90;90.80
43842;DHT22;29495;49.970;20.842;2024-03-23T15:27:13;15.90;91.10
43842;DHT22;29495;49.970;20.842;2024-03-23T15:29:39;15.80;91.00
43842;DHT22;29495;49.970;20.842;2024-03-23T15:32:10;15.80;91.80
43842;DHT22;29495;49.970;20.842;2024-03-23T15:34:36;15.70;92.20
43842;DHT22;29495;49.970;20.842;2024-03-23T15:41:06;14.90;99.90
43842;DHT22;29495;49.970;20.842;2024-03-23T15:43:50;13.90;99.90
43842;DHT22;29495;49.970;20.842;2024-03-23T15:46:29;13.50;99.90
43842;DHT22;29495;49.970;20.842;2024-03-23T15:49:00;13.30;99.90
43842;DHT22;29495;49.970;20.842;2024-03-23T15:51:27;13.30;99.90
43842;DHT22;29495;49.970;20.842;2024-03-23T15:54:05;13.20;99.90
43842;DHT22;29495;49.970;20.842;2024-03-23T15:56:34;13.10;99.90
43842;DHT22;29495;49.970;20.842;2024-03-23T15:59:09;13.00;99.90
43842;DHT22;29495;49.970;20.842;2024-03-23T16:01:55;13.00;99.90
43842;DHT22;29495;49.970;20.842;2024-03-23T16:05:04;13.00;99.90
43842;DHT22;29495;49.970;20.842;2024-03-23T16:08:32;12.90;99.90
43842;DHT22;29495;49.970;20.842;2024-03-23T16:21:02;12.80;99.90
43842;DHT22;29495;49.970;20.842;2024-03-23T16:24:25;12.70;99.90
43842;DHT22;29495;49.970;20.842;2024-03-23T16:27:03;12.70;99.90
43842;DHT22;29495;49.970;20.842;2024-03-23T16:29:34;12.60;99.90
43842;DHT22;29495;49.970;20.842;2024-03-23T16:32:03;12.50;99.90
43842;DHT22;29495;49.970;20.842;2024-03-23T16:37:41;12.50;99.90
43842;DHT22;29495;49.970;20.842;2024-03-23T16:40:07;12.50;99.90
43842;DHT22;29495;49.970;20.842;2024-03-23T16:42:37;12.40;99.90
43842;DHT22;29495;49.970;20.842;2024-03-23T16:45:13;12.40;99.90
43842;DHT22;29495;49.970;20.842;2024-03-23T16:47:40;12.30;99.90
43842;DHT22;29495;49.970;20.842;2024-03-23T16:50:10;12.30;99.90
43842;DHT22;29495;49.970;20.842;2024-03-23T16:52:45;12.20;99.90
43842;DHT22;29495;49.970;20.842;2024-03-23T16:55:21;12.00;99.90
43842;DHT22;29495;49.970;20.842;2024-03-23T16:58:07;12.00;99.90
43842;DHT22;29495;49.970;20.842;2024-03-23T17:00:37;12.00;99.90
43842;DHT22;29495;49.970;20.842;2024-03-23T17:03:13;11.90;99.90
43842;DHT22;29495;49.970;20.842;2024-03-23T17:05:46;11.90;99.90
43842;DHT22;29495;49.970;20.842;2024-03-23T17:08:12;11.90;99.90
43842;DHT22;29495;49.970;20.842;2024-03-23T17:10:41;11.90;99.90
43842;DHT22;29495;49.970;20.842;2024-03-23T17:13:07;11.80;99.90
43842;DHT22;29495;49.970;20.842;2024-03-23T17:15:33;11.80;99.90
43842;DHT22;29495;49.970;20.842;2024-03-23T17:18:05;11.80;99.90
43842;DHT22;29495;49.970;20.842;2024-03-23T17:36:42;11.60;99.90
43842;DHT22;29495;49.970;20.842;2024-03-23T17:39:19;11.60;99.90
43842;DHT22;29495;49.970;20.842;2024-03-23T17:42:08;11.60;99.90
43842;DHT22;29495;49.970;20.842;2024-03-23T17:45:25;11.60;99.90
43842;DHT22;29495;49.970;20.842;2024-03-23T17:48:27;11.50;99.90
43842;DHT22;29495;49.970;20.842;2024-03-23T18:03:23;11.50;99.90
43842;DHT22;29495;49.970;20.842;2024-03-23T18:14:04;11.40;99.90
43842;DHT22;29495;49.970;20.842;2024-03-23T18:23:46;11.40;99.90
43842;DHT22;29495;49.970;20.842;2024-03-23T18:27:26;11.30;99.90
43842;DHT22;29495;49.970;20.842;2024-03-23T18:42:16;10.90;99.90
43842;DHT22;29495;49.970;20.842;2024-03-23T18:48:20;10.70;99.90
43842;DHT22;29495;49.970;20.842;2024-03-23T18:54:02;9.60;99.90
43842;DHT22;29495;49.970;20.842;2024-03-23T18:56:38;9.20;99.90
43842;DHT22;29495;49.970;20.842;2024-03-23T18:59:45;9.00;99.90
43842;DHT22;29495;49.970;20.842;2024-03-23T19:02:41;8.90;99.90
43842;DHT22;29495;49.970;20.842;2024-03-23T19:05:15;8.80;99.90
43842;DHT22;29495;49.970;20.842;2024-03-23T19:07:52;8.70;99.90
43842;DHT22;29495;49.970;20.842;2024-03-23T19:13:52;8.50;99.90
43842;DHT22;29495;49.970;20.842;2024-03-23T19:20:15;8.30;99.90
43842;DHT22;29495;49.970;20.842;2024-03-23T19:26:39;8.30;99.90
43842;DHT22;29495;49.970;20.842;2024-03-23T19:32:41;8.20;99.90
43842;DHT22;29495;49.970;20.842;2024-03-23T19:38:51;8.10;99.90
43842;DHT22;29495;49.970;20.842;2024-03-23T19:45:22;8.00;99.90
43842;DHT22;29495;49.970;20.842;2024-03-23T19:47:53;8.20;99.90
43842;DHT22;29495;49.970;20.842;2024-03-23T19:50:23;8.20;99.90
43842;DHT22;29495;49.970;20.842;2024-03-23T19:56:27;8.20;99.90
43842;DHT22;29495;49.970;20.842;2024-03-23T19:59:00;8.20;99.90
43842;DHT22;29495;49.970;20.842;2024-03-23T20:01:26;8.10;99.90
43842;DHT22;29495;49.970;20.842;2024-03-23T20:03:52;8.10;99.90
43842;DHT22;29495;49.970;20.842;2024-03-23T20:06:18;8.00;99.90
43842;DHT22;29495;49.970;20.842;2024-03-23T20:08:44;8.00;99.90
43842;DHT22;29495;49.970;20.842;2024-03-23T20:11:11;8.10;99.90
43842;DHT22;29495;49.970;20.842;2024-03-23T20:13:37;8.10;99.90
43842;DHT22;29495;49.970;20.842;2024-03-23T20:16:03;8.20;99.90
43842;DHT22;29495;49.970;20.842;2024-03-23T20:18:29;8.20;99.90
43842;DHT22;29495;49.970;20.842;2024-03-23T20:21:02;8.20;99.90
43842;DHT22;29495;49.970;20.842;2024-03-23T20:23:29;8.10;99.90
43842;DHT22;29495;49.970;20.842;2024-03-23T20:25:56;8.20;99.90
43842;DHT22;29495;49.970;20.842;2024-03-23T20:28:23;8.30;99.90
43842;DHT22;29495;49.970;20.842;2024-03-23T20:30:56;8.40;99.90
43842;DHT22;29495;49.970;20.842;2024-03-23T20:33:22;8.50;99.90
43842;DHT22;29495;49.970;20.842;2024-03-23T20:35:49;8.50;99.90
43842;DHT22;29495;49.970;20.842;2024-03-23T20:38:17;8.50;99.90
43842;DHT22;29495;49.970;20.842;2024-03-23T20:40:44;8.40;99.90
43842;DHT22;29495;49.970;20.842;2024-03-23T20:43:10;8.30;99.90
43842;DHT22;29495;49.970;20.842;2024-03-23T20:45:39;8.30;99.90
43842;DHT22;29495;49.970;20.842;2024-03-23T20:48:06;8.10;99.90
43842;DHT22;29495;49.970;20.842;2024-03-23T20:50:32;8.10;99.90
43842;DHT22;29495;49.970;20.842;2024-03-23T20:53:01;8.10;99.90
43842;DHT22;29495;49.970;20.842;2024-03-23T20:55:27;8.00;99.90
43842;DHT22;29495;49.970;20.842;2024-03-23T20:57:56;8.00;99.90
43842;DHT22;29495;49.970;20.842;2024-03-23T21:00:22;7.90;99.90
43842;DHT22;29495;49.970;20.842;2024-03-23T21:02:48;7.90;99.90
43842;DHT22;29495;49.970;20.842;2024-03-23T21:05:13;7.80;99.90
43842;DHT22;29495;49.970;20.842;2024-03-23T21:07:39;7.80;99.90
43842;DHT22;29495;49.970;20.842;2024-03-23T21:10:09;7.80;99.90
43842;DHT22;29495;49.970;20.842;2024-03-23T21:12:36;7.80;99.90
43842;DHT22;29495;49.970;20.842;2024-03-23T21:15:02;7.70;99.90
43842;DHT22;29495;49.970;20.842;2024-03-23T21:17:28;7.80;99.90
43842;DHT22;29495;49.970;20.842;2024-03-23T21:19:54;7.70;99.90
43842;DHT22;29495;49.970;20.842;2024-03-23T21:22:20;7.70;99.90
43842;DHT22;29495;49.970;20.842;2024-03-23T21:24:47;7.60;99.90
43842;DHT22;29495;49.970;20.842;2024-03-23T21:27:14;7.60;99.90
43842;DHT22;29495;49.970;20.842;2024-03-23T21:29:40;7.70;99.90
43842;DHT22;29495;49.970;20.842;2024-03-23T21:32:06;7.80;99.90
43842;DHT22;29495;49.970;20.842;2024-03-23T21:34:32;7.80;99.90
43842;DHT22;29495;49.970;20.842;2024-03-23T21:36:58;7.90;99.90
43842;DHT22;29495;49.970;20.842;2024-03-23T21:39:24;7.80;99.90
43842;DHT22;29495;49.970;20.842;2024-03-23T21:41:50;7.60;99.90
43842;DHT22;29495;49.970;20.842;2024-03-23T21:44:16;7.70;99.90
43842;DHT22;29495;49.970;20.842;2024-03-23T21:46:42;7.60;99.90
43842;DHT22;29495;49.970;20.842;2024-03-23T21:49:08;7.50;99.90
43842;DHT22;29495;49.970;20.842;2024-03-23T21:51:34;7.50;99.90
43842;DHT22;29495;49.970;20.842;2024-03-23T21:54:01;7.40;99.90
43842;DHT22;29495;49.970;20.842;2024-03-23T21:56:29;7.40;99.90
43842;DHT22;29495;49.970;20.842;2024-03-23T21:58:58;7.30;99.90
43842;DHT22;29495;49.970;20.842;2024-03-23T22:01:25;7.30;99.90
43842;DHT22;29495;49.970;20.842;2024-03-23T22:03:51;7.30;99.90
43842;DHT22;29495;49.970;20.842;2024-03-23T22:06:20;7.10;99.90
43842;DHT22;29495;49.970;20.842;2024-03-23T22:08:46;7.20;99.90
43842;DHT22;29495;49.970;20.842;2024-03-23T22:11:14;7.10;99.90
43842;DHT22;29495;49.970;20.842;2024-03-23T22:13:41;7.10;99.90
43842;DHT22;29495;49.970;20.842;2024-03-23T22:16:08;7.10;99.90
43842;DHT22;29495;49.970;20.842;2024-03-23T22:18:34;7.10;99.90
43842;DHT22;29495;49.970;20.842;2024-03-23T22:21:02;7.10;99.90
43842;DHT22;29495;49.970;20.842;2024-03-23T22:23:30;7.00;99.90
43842;DHT22;29495;49.970;20.842;2024-03-23T22:25:56;7.00;99.90
43842;DHT22;29495;49.970;20.842;2024-03-23T22:28:25;7.00;99.90
43842;DHT22;29495;49.970;20.842;2024-03-23T22:30:55;7.00;99.90
43842;DHT22;29495;49.970;20.842;2024-03-23T22:33:21;6.90;99.90
43842;DHT22;29495;49.970;20.842;2024-03-23T22:35:48;6.90;99.90
43842;DHT22;29495;49.970;20.842;2024-03-23T22:38:14;6.90;99.90
43842;DHT22;29495;49.970;20.842;2024-03-23T22:40:40;6.90;99.90
43842;DHT22;29495;49.970;20.842;2024-03-23T22:43:06;6.80;99.90
43842;DHT22;29495;49.970;20.842;2024-03-23T22:45:32;6.80;99.90
43842;DHT22;29495;49.970;20.842;2024-03-23T22:47:58;6.80;99.90
43842;DHT22;29495;49.970;20.842;2024-03-23T22:50:24;6.80;99.90
43842;DHT22;29495;49.970;20.842;2024-03-23T22:52:50;6.70;99.90
43842;DHT22;29495;49.970;20.842;2024-03-23T22:55:16;6.70;99.90
43842;DHT22;29495;49.970;20.842;2024-03-23T22:57:42;6.70;99.90
43842;DHT22;29495;49.970;20.842;2024-03-23T23:00:08;6.60;99.90
43842;DHT22;29495;49.970;20.842;2024-03-23T23:02:36;6.70;99.90
43842;DHT22;29495;49.970;20.842;2024-03-23T23:05:02;6.60;99.90
43842;DHT22;29495;49.970;20.842;2024-03-23T23:07:28;6.50;99.90
43842;DHT22;29495;49.970;20.842;2024-03-23T23:09:55;6.50;99.90
43842;DHT22;29495;49.970;20.842;2024-03-23T23:12:21;6.40;99.90
43842;DHT22;29495;49.970;20.842;2024-03-23T23:14:48;6.50;99.90
43842;DHT22;29495;49.970;20.842;2024-03-23T23:17:14;6.40;99.90
43842;DHT22;29495;49.970;20.842;2024-03-23T23:19:40;6.40;99.90
43842;DHT22;29495;49.970;20.842;2024-03-23T23:22:06;6.50;99.90
43842;DHT22;29495;49.970;20.842;2024-03-23T23:24:33;6.40;99.90
43842;DHT22;29495;49.970;20.842;2024-03-23T23:26:59;6.50;99.90
43842;DHT22;29495;49.970;20.842;2024-03-23T23:29:25;6.40;99.90
43842;DHT22;29495;49.970;20.842;2024-03-23T23:31:51;6.30;99.90
43842;DHT22;29495;49.970;20.842;2024-03-23T23:34:20;6.40;99.90
43842;DHT22;29495;49.970;20.842;2024-03-23T23:36:47;6.30;99.90
43842;DHT22;29495;49.970;20.842;2024-03-23T23:39:13;6.40;99.90
43842;DHT22;29495;49.970;20.842;2024-03-23T23:41:39;6.40;99.90
43842;DHT22;29495;49.970;20.842;2024-03-23T23:44:05;6.30;99.90
43842;DHT22;29495;49.970;20.842;2024-03-23T23:46:31;6.40;99.90
43842;DHT22;29495;49.970;20.842;2024-03-23T23:48:57;6.30;99.90
43842;DHT22;29495;49.970;20.842;2024-03-23T23:51:23;6.30;99.90
43842;DHT22;29495;49.970;20.842;2024-03-23T23:53:49;6.30;99.90
43842;DHT22;29495;49.970;20.842;2024-03-23T23:56:15;6.30;99.90
43842;DHT22;29495;49.970;20.842;2024-03-23T23:58:41;6.20;99.90
